메인 페이지
METAR-TAF:

METAR-TAF

공항 :

헌츠빌 국제공항

헌츠빌, 앨라배마, 미국

위도: 34-38-37N, 경도: 086-47-08W, 고도: 192m

현재 날씨관측

예보는 57분 전, 22:53시(UTC)에 발표되었습니다.
남남서7kt
온도 31°C
습도 55%
기압 1014 hPa
시정: 16.1km
고도 4500ft 상공 구름 조금
고도 10000ft 상공 구름 조금
고도 25000ft 상공 흐림

METAR: KHSV 172253Z 20007KT 10SM FEW045 FEW100 OVC250 31/21 A2994 RMK AO2 SLP129 T03060211

시각: 18:50 (23:50 UTC)

예보

예보는 22분 전, 23:28시(UTC)에 발표되었습니다.
예보 대상 시간: 18일 00시부터 18일 24시까지 (UTC)
남남서8kt
시정: 10km
고도 5000ft 상공 구름 많음, 적란운.
시계 내 뇌우
18일 0100시부터 (UTC)
남동4kt
시정: 10km
고도 10000ft 상공 흐림
시계 내 소나기
18일 1300시부터 (UTC)
7kt
시정: 10km
고도 2500ft 상공 구름 보통
고도 4000ft 상공 구름 많음
시계 내 소나기
18일 1800시부터 (UTC)
남남서7kt
시정: 10km
고도 2500ft 상공 구름 보통
고도 5000ft 상공 흐림
확률 30%
18일 18시부터 18일 23시까지 (UTC)
고도 2000ft 상공 구름 보통, 적란운.
뇌우, 비

TAF: KHSV 172328Z 1800/1824 20008KT P6SM VCTS BKN050CB FM180100 14004KT P6SM VCSH OVC100 FM181300 17007KT P6SM VCSH SCT025 BKN040 FM181800 21007KT P6SM SCT025 OVC050 PROB30 1818/1823 TSRA SCT020CB

4,000개 이상의 공항 관측 자료 및 예보 (METAR 및 TAF 보고).

지도상에서 검색 가능한 기상관측소가 노란 점과 빨간 점으로 표시되어 있습니다.

기상관측소 명을 보려면 표시 위로 마우스를 이동하세요.

날씨 관측과 예보를 보려면 클릭하세요.

지도 변경 : 확대하려면 엑스 표시가 있는 녹색 버튼, 축소하려면 빼기 표시가 있는 녹색 버튼, 다음 페이지의 지도를 보려면 녹색 화살표를 클릭하세요.


METAR-TAF: